createdAt,value
2018-09-12T00:01:56.023Z,82.02
2018-09-12T00:06:58.292Z,82.15
2018-09-12T00:12:00.415Z,82.33
2018-09-12T00:17:02.550Z,81.63
2018-09-12T00:22:05.271Z,82.10
2018-09-12T00:27:07.416Z,82.09
2018-09-12T00:32:09.544Z,81.90
2018-09-12T00:37:11.683Z,82.36
2018-09-12T00:42:13.811Z,81.62
2018-09-12T00:47:15.964Z,81.89
2018-09-12T00:52:18.234Z,81.49
2018-09-12T00:57:20.347Z,81.80
2018-09-12T01:02:22.497Z,81.11
2018-09-12T01:07:24.644Z,81.49
2018-09-12T01:12:26.780Z,81.68
2018-09-12T01:17:28.940Z,81.69
2018-09-12T01:22:31.070Z,81.21
2018-09-12T01:27:33.226Z,81.55
2018-09-12T01:32:35.421Z,81.18
2018-09-12T01:37:37.530Z,80.87
2018-09-12T01:42:39.681Z,79.51
2018-09-12T01:47:41.795Z,79.64
2018-09-12T01:52:44.343Z,79.31
2018-09-12T01:57:46.457Z,79.41
2018-09-12T02:02:48.634Z,80.33
2018-09-12T02:07:50.788Z,79.59
2018-09-12T02:12:52.885Z,79.41
2018-09-12T02:17:55.012Z,79.25
2018-09-12T02:22:57.176Z,79.63
2018-09-12T02:27:59.337Z,79.92
2018-09-12T02:33:01.502Z,79.91
2018-09-12T02:38:03.709Z,80.19
2018-09-12T02:43:05.869Z,80.02
2018-09-12T02:48:07.978Z,79.79
2018-09-12T02:53:10.088Z,80.06
2018-09-12T02:58:12.216Z,80.45
2018-09-12T03:03:14.322Z,80.29
2018-09-12T03:08:16.464Z,80.66
2018-09-12T03:13:18.607Z,80.91
2018-09-12T03:18:20.747Z,80.61
2018-09-12T03:23:22.887Z,80.73
2018-09-12T03:28:25.031Z,81.54
2018-09-12T03:33:27.149Z,81.58
2018-09-12T03:38:29.256Z,81.35
2018-09-12T03:43:31.374Z,81.69
2018-09-12T03:48:33.495Z,81.62
2018-09-12T03:53:35.623Z,81.61
2018-09-12T03:58:37.750Z,82.07
2018-09-12T04:03:39.883Z,81.84
2018-09-12T04:08:41.983Z,82.38
2018-09-12T04:13:44.161Z,82.34
2018-09-12T04:18:46.311Z,82.34
2018-09-12T04:23:48.490Z,82.85
2018-09-12T04:28:50.614Z,83.10
2018-09-12T04:33:52.741Z,82.98
2018-09-12T04:38:54.858Z,83.45
2018-09-12T04:43:57.062Z,83.38
2018-09-12T04:48:59.251Z,83.07
2018-09-12T04:54:01.396Z,83.77
2018-09-12T04:59:03.904Z,83.53
2018-09-12T05:04:06.036Z,83.42
2018-09-12T05:09:09.441Z,83.44
2018-09-12T05:14:11.595Z,83.08
2018-09-12T05:19:13.777Z,83.32
2018-09-12T05:24:15.943Z,83.26
2018-09-12T05:29:18.065Z,83.63
2018-09-12T05:34:20.183Z,83.86
2018-09-12T05:39:22.331Z,82.95
2018-09-12T05:44:24.471Z,83.18
2018-09-12T05:49:26.637Z,83.70
2018-09-12T05:54:28.770Z,83.16
2018-09-12T05:59:30.904Z,83.77
2018-09-12T06:04:33.047Z,82.89
2018-09-12T06:09:35.208Z,82.25
2018-09-12T06:14:37.371Z,82.17
2018-09-12T06:19:39.463Z,82.30
2018-09-12T06:24:41.632Z,82.99
2018-09-12T06:29:43.819Z,82.40
2018-09-12T06:34:45.914Z,82.11
2018-09-12T06:39:48.084Z,82.51
2018-09-12T06:44:50.225Z,82.67
2018-09-12T06:49:52.525Z,82.22
2018-09-12T06:54:54.641Z,82.10
2018-09-12T06:59:56.759Z,81.93
2018-09-12T07:04:58.898Z,82.70
2018-09-12T07:10:00.990Z,82.77
2018-09-12T07:15:03.164Z,82.08
2018-09-12T07:20:05.336Z,82.75
2018-09-12T07:25:07.502Z,82.58
2018-09-12T07:30:09.685Z,83.09
2018-09-12T07:35:11.799Z,83.84
2018-09-12T07:40:13.933Z,83.06
2018-09-12T07:45:16.080Z,83.85
2018-09-12T07:50:18.232Z,84.13
2018-09-12T07:55:20.434Z,83.96
2018-09-12T08:00:22.592Z,84.03
2018-09-12T08:05:24.683Z,82.24
2018-09-12T08:10:26.785Z,81.76
2018-09-12T08:15:28.923Z,81.95
2018-09-12T08:20:31.036Z,81.70
2018-09-12T08:25:33.236Z,80.97
2018-09-12T08:30:35.376Z,80.41
2018-09-12T08:35:37.526Z,79.26
2018-09-12T08:40:39.663Z,78.94
2018-09-12T08:45:42.020Z,79.01
2018-09-12T08:50:48.199Z,78.99
2018-09-12T08:55:50.349Z,78.59
2018-09-12T09:00:52.469Z,78.71
2018-09-12T09:05:54.613Z,78.28
2018-09-12T09:10:57.064Z,78.22
2018-09-12T09:15:59.197Z,78.33
2018-09-12T09:21:01.398Z,77.09
2018-09-12T09:26:03.618Z,77.52
2018-09-12T09:31:05.750Z,77.36
2018-09-12T09:36:07.951Z,77.45
2018-09-12T09:41:10.120Z,77.91
2018-09-12T09:46:12.332Z,77.56
2018-09-12T09:51:14.502Z,77.41
2018-09-12T09:56:16.708Z,78.65
2018-09-12T10:01:24.646Z,77.97
2018-09-12T10:06:32.183Z,77.78
2018-09-12T10:11:34.310Z,77.71
2018-09-12T10:16:36.457Z,76.92
2018-09-12T10:21:38.587Z,77.53
2018-09-12T10:26:40.756Z,77.44
2018-09-12T10:31:42.966Z,78.10
2018-09-12T10:36:45.123Z,77.78
2018-09-12T10:41:47.328Z,78.03
2018-09-12T10:46:49.478Z,77.16
2018-09-12T10:51:51.700Z,77.10
2018-09-12T10:56:53.859Z,76.47
2018-09-12T11:01:56.006Z,75.27
2018-09-12T11:06:58.130Z,74.47
2018-09-12T11:12:00.283Z,73.44
2018-09-12T11:17:02.458Z,74.04
2018-09-12T11:22:04.635Z,73.46
2018-09-12T11:27:06.811Z,72.87
2018-09-12T11:32:08.979Z,71.39
2018-09-12T11:37:11.123Z,71.97
2018-09-12T11:42:13.284Z,72.13
2018-09-12T11:47:15.389Z,71.72
2018-09-12T11:52:17.512Z,72.87
2018-09-12T11:57:19.658Z,72.94
2018-09-12T12:02:22.268Z,73.90
2018-09-12T12:07:24.554Z,74.34
2018-09-12T12:12:26.691Z,75.13
2018-09-12T12:17:28.844Z,74.84
2018-09-12T12:22:30.979Z,72.63
2018-09-12T12:27:33.212Z,73.17
2018-09-12T12:32:35.360Z,73.13
2018-09-12T12:37:37.539Z,72.25
2018-09-12T12:42:39.687Z,72.05
2018-09-12T12:47:41.870Z,71.95
2018-09-12T12:52:44.002Z,70.56
2018-09-12T12:57:46.439Z,70.01
2018-09-12T13:02:48.612Z,69.73
2018-09-12T13:07:50.789Z,69.32
2018-09-12T13:12:52.951Z,69.14
2018-09-12T13:17:55.402Z,70.27
2018-09-12T13:22:57.588Z,70.08
2018-09-12T13:27:59.860Z,69.88
2018-09-12T13:33:01.995Z,68.37
2018-09-12T13:38:04.199Z,68.08
2018-09-12T13:43:06.366Z,68.41
2018-09-12T13:48:08.586Z,68.23
2018-09-12T13:53:10.766Z,67.67
2018-09-12T13:58:12.906Z,67.13
2018-09-12T14:03:15.417Z,67.50
2018-09-12T14:08:17.552Z,68.13
2018-09-12T14:13:19.708Z,67.28
2018-09-12T14:18:21.819Z,68.15
2018-09-12T14:23:23.971Z,68.24
2018-09-12T14:28:26.158Z,68.47
2018-09-12T14:33:28.333Z,68.06
2018-09-12T14:38:30.505Z,68.85
2018-09-12T14:43:32.699Z,68.46
2018-09-12T14:48:35.395Z,67.96
2018-09-12T14:53:37.558Z,66.30
2018-09-12T14:58:39.729Z,66.44
2018-09-12T15:03:41.870Z,64.81
2018-09-12T15:08:44.027Z,65.58
2018-09-12T15:13:46.212Z,65.48
2018-09-12T15:18:48.628Z,66.07
2018-09-12T15:23:50.799Z,65.61
2018-09-12T15:28:53.011Z,65.54
2018-09-12T15:33:55.180Z,65.91
2018-09-12T15:38:57.362Z,64.06
2018-09-12T15:43:59.530Z,65.37
2018-09-12T15:49:01.671Z,65.66
2018-09-12T15:54:03.845Z,65.76
2018-09-12T15:59:06.063Z,65.82
2018-09-12T16:04:09.186Z,66.21
2018-09-12T16:09:11.429Z,65.78
2018-09-12T16:14:14.338Z,65.56
2018-09-12T16:19:16.466Z,66.13
2018-09-12T16:24:18.605Z,65.99
2018-09-12T16:29:20.807Z,66.54
2018-09-12T16:34:23.007Z,66.90
2018-09-12T16:39:25.199Z,66.87
2018-09-12T16:44:27.404Z,66.42
2018-09-12T16:49:29.605Z,66.88
2018-09-12T16:54:32.067Z,66.36
2018-09-12T16:59:34.310Z,66.69
2018-09-12T17:04:36.498Z,67.43
2018-09-12T17:09:38.709Z,67.67
2018-09-12T17:14:40.949Z,67.64
2018-09-12T17:19:43.763Z,68.03
2018-09-12T17:24:45.974Z,68.25
2018-09-12T17:29:49.000Z,68.92
2018-09-12T17:34:51.174Z,69.64
2018-09-12T17:39:53.401Z,70.27
2018-09-12T17:44:55.646Z,70.53
2018-09-12T17:49:57.807Z,70.56
2018-09-12T17:55:00.491Z,71.34
2018-09-12T18:00:02.734Z,71.46
2018-09-12T18:05:05.070Z,71.76
2018-09-12T18:10:07.363Z,72.59
2018-09-12T18:15:09.644Z,72.36
2018-09-12T18:20:11.937Z,72.79
2018-09-12T18:25:14.252Z,73.22
2018-09-12T18:30:17.723Z,73.71
2018-09-12T18:35:19.992Z,73.10
2018-09-12T18:40:22.404Z,73.12
2018-09-12T18:45:24.816Z,72.95
2018-09-12T18:50:27.066Z,73.86
2018-09-12T18:55:29.413Z,73.49
2018-09-12T19:00:32.496Z,73.71
2018-09-12T19:05:34.735Z,74.23
2018-09-12T19:10:37.392Z,73.72
2018-09-12T19:15:39.721Z,73.77
2018-09-12T19:20:43.914Z,74.03
2018-09-12T19:25:46.792Z,74.28
2018-09-12T19:30:49.623Z,74.20
2018-09-12T19:35:53.492Z,74.38
2018-09-12T19:40:55.888Z,74.96
2018-09-12T19:45:58.866Z,75.13
2018-09-12T19:51:01.258Z,75.81
2018-09-12T19:56:03.478Z,75.65
2018-09-12T20:01:05.761Z,75.56
2018-09-12T20:06:08.044Z,75.63
2018-09-12T20:11:10.318Z,76.56
2018-09-12T20:16:12.669Z,75.69
2018-09-12T20:21:14.862Z,75.73
2018-09-12T20:26:17.104Z,76.78
2018-09-12T20:31:20.701Z,76.24
2018-09-12T20:36:22.942Z,76.44
2018-09-12T20:41:25.719Z,76.15
2018-09-12T20:46:27.952Z,75.74
2018-09-12T20:51:30.127Z,76.11
2018-09-12T20:56:32.410Z,76.42
2018-09-12T21:01:34.612Z,76.67
2018-09-12T21:06:36.860Z,76.26
2018-09-12T21:11:39.556Z,76.64
2018-09-12T21:16:41.743Z,76.64
2018-09-12T21:21:43.869Z,77.48
2018-09-12T21:26:46.042Z,76.66
2018-09-12T21:31:48.284Z,76.14
2018-09-12T21:36:50.423Z,76.81
2018-09-12T21:41:52.617Z,77.46
2018-09-12T21:46:54.875Z,76.04
2018-09-12T21:51:56.992Z,75.66
2018-09-12T21:56:59.109Z,76.40
2018-09-12T22:02:01.278Z,76.05
2018-09-12T22:07:03.496Z,76.61
2018-09-12T22:12:05.646Z,76.36
2018-09-12T22:17:07.854Z,76.02
2018-09-12T22:22:10.060Z,76.20
2018-09-12T22:27:12.194Z,76.42
2018-09-12T22:32:14.364Z,76.75
2018-09-12T22:37:16.509Z,75.85
2018-09-12T22:42:18.614Z,75.58
2018-09-12T22:47:20.743Z,76.39
2018-09-12T22:52:22.924Z,76.15
2018-09-12T22:57:25.053Z,77.00
2018-09-12T23:02:27.171Z,76.84
2018-09-12T23:07:29.323Z,76.12
2018-09-12T23:12:31.506Z,76.29
2018-09-12T23:17:33.657Z,75.88
2018-09-12T23:22:35.968Z,76.61
2018-09-12T23:27:38.090Z,76.71
2018-09-12T23:32:40.287Z,76.70
2018-09-12T23:37:42.454Z,76.90
2018-09-12T23:42:44.549Z,76.28
2018-09-12T23:47:46.691Z,75.79
2018-09-12T23:52:48.814Z,75.98
2018-09-12T23:57:50.991Z,76.08
